Time;durP1;ratioP1;P1;durP2;ratioP2;P2;SDS_P1;SDS_P2;PMS_P1;PMS_P2;Temp;Humidity;BMP_temperature;BMP_pressure;BME280_temperature;BME280_humidity;BME280_pressure;Samples;Min_cycle;Max_cycle;Signal;HPM_P1;HPM_P2
2023/09/04 00:02:52;;;;;;;3.15;2.90;;;;;;;14.23;66.86;101701.38;20788180;28;20224;-81
2023/09/04 00:12:55;;;;;;;5.47;3.25;;;;;;;14.35;65.57;101698.81;20769253;28;20373;-81
2023/09/04 00:22:56;;;;;;;2.63;2.33;;;;;;;14.60;65.01;101685.16;20780470;28;20213;-81
2023/09/04 00:32:59;;;;;;;2.50;2.30;;;;;;;14.17;66.44;101685.63;20763106;28;20256;-82
2023/09/04 00:43:02;;;;;;;5.40;2.60;;;;;;;14.46;64.89;101673.88;20793034;28;20220;-82
2023/09/04 00:53:06;;;;;;;3.20;2.80;;;;;;;14.44;65.13;101681.03;20818292;28;20555;-81
2023/09/04 01:03:09;;;;;;;2.85;2.65;;;;;;;13.96;66.73;101684.47;20808218;28;20240;-81
2023/09/04 01:13:18;;;;;;;3.20;2.65;;;;;;;13.64;68.93;101691.16;20803358;28;20288;-82
2023/09/04 01:23:20;;;;;;;4.00;3.05;;;;;;;13.47;68.34;101680.47;20788909;28;20485;-81
2023/09/04 01:33:28;;;;;;;3.75;3.20;;;;;;;13.45;68.35;101668.66;20800222;28;20228;-82
2023/09/04 01:43:31;;;;;;;8.20;2.73;;;;;;;13.51;68.17;101673.03;20801084;28;20221;-81
2023/09/04 01:53:32;;;;;;;7.32;2.50;;;;;;;13.34;68.56;101670.81;20800909;28;20593;-81
2023/09/04 02:03:35;;;;;;;3.10;2.83;;;;;;;13.45;68.56;101668.66;20814368;28;20224;-81
2023/09/04 02:13:37;;;;;;;4.57;2.40;;;;;;;13.28;68.97;101680.56;20824114;28;20220;-80
2023/09/04 02:23:40;;;;;;;3.60;2.67;;;;;;;13.24;69.19;101673.03;20821726;28;20243;-82
2023/09/04 02:33:44;;;;;;;3.33;3.03;;;;;;;12.94;70.35;101669.66;20813795;28;20217;-83
2023/09/04 02:43:47;;;;;;;4.70;2.72;;;;;;;12.65;69.78;101656.97;20812967;28;20283;-82
2023/09/04 02:53:49;;;;;;;3.50;2.67;;;;;;;12.79;69.02;101655.00;20813004;28;20547;-83
2023/09/04 03:03:52;;;;;;;3.20;2.90;;;;;;;12.52;70.10;101641.66;20818087;28;20521;-83
2023/09/04 03:13:53;;;;;;;5.00;3.37;;;;;;;12.81;68.75;101638.59;20805789;28;20197;-81
2023/09/04 03:23:56;;;;;;;5.13;4.00;;;;;;;13.08;68.29;101635.75;20806533;28;20227;-82
2023/09/04 03:34:00;;;;;;;3.55;2.92;;;;;;;12.95;68.61;101634.63;20807110;28;20228;-82
2023/09/04 03:44:03;;;;;;;6.23;2.90;;;;;;;12.89;68.99;101637.84;20809647;28;20242;-81
2023/09/04 03:54:05;;;;;;;6.60;3.10;;;;;;;12.92;67.82;101628.75;20817149;28;20196;-81
2023/09/04 04:04:10;;;;;;;4.13;3.72;;;;;;;12.94;67.50;101613.16;20797980;28;20641;-81
2023/09/04 04:14:11;;;;;;;8.43;4.38;;;;;;;12.53;68.51;101620.75;20787820;28;20464;-80
2023/09/04 04:24:15;;;;;;;6.43;4.70;;;;;;;12.55;69.64;101633.41;20815587;28;20251;-80
2023/09/04 04:34:16;;;;;;;5.80;3.90;;;;;;;12.72;67.61;101629.16;20819070;28;20540;-80
2023/09/04 04:44:19;;;;;;;5.03;4.05;;;;;;;12.55;68.09;101621.28;20809730;28;20223;-80
2023/09/04 04:54:21;;;;;;;5.17;3.87;;;;;;;11.81;70.49;101626.78;20801066;28;20192;-81
2023/09/04 05:04:25;;;;;;;4.17;3.70;;;;;;;12.48;68.32;101617.97;20796574;28;20228;-80
2023/09/04 05:14:26;;;;;;;5.10;4.00;;;;;;;12.39;68.87;101617.03;20794708;28;20211;-81
2023/09/04 05:24:30;;;;;;;6.10;4.77;;;;;;;12.80;68.18;101632.09;20791336;28;20633;-80
2023/09/04 05:34:31;;;;;;;7.07;5.00;;;;;;;12.74;68.26;101621.19;20809301;28;20229;-80
2023/09/04 05:44:34;;;;;;;6.35;4.65;;;;;;;12.10;70.58;101637.84;20793505;28;20217;-80
2023/09/04 05:54:36;;;;;;;11.65;5.28;;;;;;;12.40;70.28;101638.47;20812568;28;20214;-80
2023/09/04 06:04:39;;;;;;;7.23;4.83;;;;;;;12.87;70.07;101646.63;20838676;28;20533;-81
2023/09/04 06:14:41;;;;;;;9.47;4.60;;;;;;;12.86;69.96;101642.13;20845724;28;20205;-81
2023/09/04 06:24:44;;;;;;;6.53;5.28;;;;;;;13.22;69.40;101639.44;20825517;28;20254;-81
2023/09/04 06:34:46;;;;;;;5.97;4.40;;;;;;;13.45;69.88;101634.72;20904878;28;20374;-81
2023/09/04 06:44:49;;;;;;;7.17;5.30;;;;;;;14.01;68.82;101633.41;20900159;28;20228;-81
2023/09/04 06:54:51;;;;;;;8.00;5.23;;;;;;;14.35;68.18;101613.84;20827165;28;20194;-80
2023/09/04 07:04:54;;;;;;;6.57;4.82;;;;;;;14.73;67.08;101613.38;20814615;28;20226;-80
2023/09/04 07:14:56;;;;;;;6.15;3.92;;;;;;;14.88;67.54;101610.13;20811545;28;20227;-81
2023/09/04 07:24:59;;;;;;;4.55;3.85;;;;;;;15.17;67.50;101606.75;20792042;28;20313;-80
2023/09/04 07:35:01;;;;;;;4.15;3.35;;;;;;;15.38;67.26;101610.63;20843855;28;20248;-80
2023/09/04 07:45:04;;;;;;;3.78;2.75;;;;;;;15.96;64.76;101611.38;20837316;28;20318;-80
2023/09/04 07:55:08;;;;;;;3.40;2.17;;;;;;;16.75;59.89;101616.59;20833527;28;20208;-79
2023/09/04 08:05:11;;;;;;;3.42;2.25;;;;;;;17.03;60.70;101623.47;20838680;28;20256;-80
2023/09/04 08:15:13;;;;;;;6.45;2.22;;;;;;;17.32;60.32;101624.72;20806443;28;20205;-80
2023/09/04 08:25:16;;;;;;;2.70;1.90;;;;;;;17.85;56.25;101616.28;20823811;28;20216;-80
2023/09/04 08:35:18;;;;;;;6.80;2.40;;;;;;;18.03;57.12;101607.63;20832469;28;20247;-80
2023/09/04 08:45:21;;;;;;;6.22;1.33;;;;;;;18.81;51.60;101590.56;20829722;28;20228;-80
2023/09/04 08:55:23;;;;;;;2.72;1.38;;;;;;;19.01;51.28;101589.59;20828688;28;20227;-80
2023/09/04 09:05:27;;;;;;;1.95;1.17;;;;;;;18.88;50.62;101590.78;20819541;28;20228;-81
2023/09/04 09:15:31;;;;;;;2.15;0.90;;;;;;;19.09;43.45;101582.97;20814780;28;20495;-80
2023/09/04 09:25:34;;;;;;;0.73;0.73;;;;;;;19.78;42.09;101581.06;20844697;28;20220;-80
2023/09/04 09:35:40;;;;;;;2.30;1.08;;;;;;;19.82;41.74;101565.69;20831999;28;20220;-81
2023/09/04 09:45:43;;;;;;;3.33;1.20;;;;;;;20.38;42.00;101554.28;20837623;28;20295;-81
2023/09/04 09:55:44;;;;;;;2.85;1.45;;;;;;;20.32;45.16;101547.16;20840690;28;20219;-81
2023/09/04 10:05:47;;;;;;;1.27;0.95;;;;;;;20.45;41.79;101540.16;20841566;28;20633;-81
2023/09/04 10:15:52;;;;;;;1.45;1.25;;;;;;;20.70;41.19;101513.06;20836505;28;20513;-81
2023/09/04 10:26:01;;;;;;;1.85;1.10;;;;;;;21.07;40.90;101516.44;20858417;28;20226;-81
2023/09/04 10:36:04;;;;;;;1.45;0.80;;;;;;;21.09;37.60;101510.34;20815516;28;20279;-80
2023/09/04 10:46:08;;;;;;;2.38;1.05;;;;;;;21.82;41.15;101495.25;20795080;28;20224;-81
2023/09/04 10:56:12;;;;;;;4.50;1.10;;;;;;;21.71;36.89;101476.97;20797209;28;20616;-81
2023/09/04 11:06:20;;;;;;;2.65;1.00;;;;;;;21.73;36.42;101474.56;20832705;28;20251;-81
2023/09/04 11:16:21;;;;;;;1.55;0.85;;;;;;;22.42;36.07;101455.44;20831694;28;20237;-81
2023/09/04 11:26:26;;;;;;;2.17;1.02;;;;;;;22.39;34.38;101464.81;20800120;28;20224;-81
2023/09/04 11:36:27;;;;;;;2.13;1.27;;;;;;;22.27;37.99;101454.34;20802191;28;20536;-81
2023/09/04 11:46:31;;;;;;;3.08;1.17;;;;;;;22.86;36.95;101456.56;20823097;28;20227;-80
2023/09/04 11:56:32;;;;;;;0.77;0.77;;;;;;;23.23;33.88;101438.69;20820113;28;20196;-81
2023/09/04 12:06:36;;;;;;;1.80;1.20;;;;;;;23.35;35.07;101434.75;20897321;28;20573;-82
2023/09/04 12:16:39;;;;;;;1.65;0.90;;;;;;;22.92;35.47;101422.63;20810175;28;20533;-80
2023/09/04 12:26:43;;;;;;;1.25;1.00;;;;;;;23.43;34.11;101408.59;20802994;28;20509;-82
2023/09/04 12:36:45;;;;;;;3.00;0.90;;;;;;;23.00;32.92;101406.34;20812682;28;20220;-81
2023/09/04 12:46:48;;;;;;;3.22;1.00;;;;;;;23.56;32.07;101394.81;20832853;28;20611;-80
2023/09/04 12:56:50;;;;;;;3.38;0.80;;;;;;;23.90;33.71;101387.78;20817511;28;20228;-81
2023/09/04 13:06:53;;;;;;;1.88;0.80;;;;;;;23.40;33.71;101380.63;20801723;28;20594;-81
2023/09/04 13:16:55;;;;;;;3.25;0.80;;;;;;;23.98;35.47;101359.13;20801629;28;20222;-81
2023/09/04 13:26:58;;;;;;;1.73;0.80;;;;;;;23.80;33.61;101356.06;20816956;28;20222;-80
2023/09/04 13:37:01;;;;;;;2.85;0.85;;;;;;;24.28;34.58;101344.63;20808170;28;20213;-80
2023/09/04 13:47:04;;;;;;;2.40;1.00;;;;;;;24.37;36.77;101322.06;20812713;28;20231;-80
2023/09/04 13:57:06;;;;;;;1.67;1.02;;;;;;;24.80;37.48;101311.69;20849637;28;20208;-79
2023/09/04 14:07:09;;;;;;;2.90;1.25;;;;;;;24.40;38.76;101301.16;20798519;28;20234;-81
2023/09/04 14:17:11;;;;;;;2.92;1.65;;;;;;;24.32;40.48;101294.50;20826558;28;20211;-81
2023/09/04 14:27:14;;;;;;;1.48;0.98;;;;;;;24.50;40.62;101283.13;20845481;28;20220;-77
2023/09/04 14:37:16;;;;;;;4.90;1.08;;;;;;;24.42;39.13;101279.34;20844950;23;20229;-81
2023/09/04 14:47:20;;;;;;;2.40;1.00;;;;;;;24.23;41.77;101271.03;20712306;28;20244;-80
2023/09/04 14:57:22;;;;;;;1.58;1.33;;;;;;;23.77;42.14;101262.81;20734267;28;20205;-80
2023/09/04 15:07:25;;;;;;;2.08;1.35;;;;;;;23.47;42.26;101242.84;20731260;28;20228;-79
2023/09/04 15:17:27;;;;;;;5.05;1.30;;;;;;;24.03;41.95;101235.91;20734410;28;20527;-83
2023/09/04 15:27:31;;;;;;;3.08;1.48;;;;;;;23.97;41.52;101231.78;20738287;28;20232;-83
2023/09/04 15:37:32;;;;;;;1.23;1.13;;;;;;;23.79;42.70;101233.69;20756031;28;20252;-81
2023/09/04 15:47:39;;;;;;;3.65;1.75;;;;;;;24.22;41.77;101227.06;20772494;28;20224;-81
2023/09/04 15:57:41;;;;;;;1.67;1.20;;;;;;;23.87;41.01;101216.13;20791709;28;20251;-79
2023/09/04 16:07:44;;;;;;;3.63;1.38;;;;;;;23.80;42.81;101210.28;20775924;28;20247;-79
2023/09/04 16:17:46;;;;;;;1.33;1.23;;;;;;;23.95;41.17;101201.78;20764253;28;20208;-81
2023/09/04 16:27:49;;;;;;;3.80;2.00;;;;;;;23.36;43.25;101201.69;20782150;28;20248;-80
2023/09/04 16:37:51;;;;;;;4.05;1.83;;;;;;;23.65;41.72;101184.72;20771936;28;20252;-80
2023/09/04 16:47:54;;;;;;;2.33;1.20;;;;;;;23.17;42.28;101178.94;20789048;28;20279;-79
2023/09/04 16:57:56;;;;;;;2.17;1.15;;;;;;;23.21;43.63;101182.69;20767658;28;21600;-79
2023/09/04 17:08:00;;;;;;;3.08;1.40;;;;;;;23.23;42.12;101180.25;20740918;28;20227;-80
2023/09/04 17:18:03;;;;;;;1.85;1.20;;;;;;;22.33;44.22;101182.44;20759907;28;20246;-79
2023/09/04 17:28:07;;;;;;;3.97;1.35;;;;;;;22.60;43.19;101186.88;20781295;28;20308;-81
2023/09/04 17:38:08;;;;;;;1.95;1.27;;;;;;;22.40;45.48;101185.41;20784001;28;20233;-80
2023/09/04 17:48:14;;;;;;;4.10;1.85;;;;;;;22.00;46.72;101192.59;20793211;28;20225;-80
2023/09/04 17:58:16;;;;;;;2.78;1.38;;;;;;;21.96;46.57;101185.97;20806456;28;20516;-81
2023/09/04 18:08:22;;;;;;;2.03;1.45;;;;;;;21.54;46.97;101189.00;20798928;28;20221;-82
2023/09/04 18:18:25;;;;;;;4.40;1.98;;;;;;;21.29;47.39;101200.00;20798871;28;20254;-81
2023/09/04 18:28:30;;;;;;;2.10;1.38;;;;;;;21.31;49.19;101194.69;20775031;28;20227;-81
2023/09/04 18:38:32;;;;;;;4.60;2.60;;;;;;;20.85;52.10;101201.56;20772638;28;20236;-81
2023/09/04 18:48:35;;;;;;;4.07;2.00;;;;;;;20.72;53.23;101209.50;20780629;28;20332;-80
2023/09/04 18:58:39;;;;;;;5.82;2.63;;;;;;;20.10;56.33;101211.38;20780532;28;20219;-79
2023/09/04 19:08:42;;;;;;;5.95;3.20;;;;;;;20.19;56.11;101199.75;20776284;28;20625;-80
2023/09/04 19:18:45;;;;;;;4.03;2.55;;;;;;;19.86;57.77;101201.00;20783534;28;20200;-81
2023/09/04 19:28:50;;;;;;;5.20;2.80;;;;;;;19.78;57.37;101201.19;20787809;28;20629;-81
2023/09/04 19:38:53;;;;;;;4.75;2.78;;;;;;;19.55;57.83;101192.47;20782813;28;20545;-81
2023/09/04 19:48:56;;;;;;;3.85;2.35;;;;;;;19.41;59.78;101180.69;20776227;28;20220;-81
2023/09/04 19:58:58;;;;;;;5.30;2.83;;;;;;;19.61;59.08;101173.88;20761304;28;20190;-81
2023/09/04 20:09:04;;;;;;;5.40;2.60;;;;;;;19.69;57.54;101164.28;20774985;28;20510;-82
2023/09/04 20:19:06;;;;;;;4.32;2.13;;;;;;;19.62;57.03;101164.91;20768224;28;20430;-80
2023/09/04 20:29:10;;;;;;;5.07;2.40;;;;;;;19.51;54.45;101157.28;20772200;28;20240;-81
2023/09/04 20:39:14;;;;;;;3.80;2.67;;;;;;;19.77;53.49;101160.38;20780162;28;20264;-80
2023/09/04 20:49:20;;;;;;;5.57;2.38;;;;;;;19.11;56.51;101158.28;20773233;28;20229;-80
2023/09/04 20:59:21;;;;;;;3.85;2.15;;;;;;;18.92;55.28;101149.63;20783206;28;20247;-79
2023/09/04 23:23:25;;;;;;;2.47;2.25;;;;;;;17.01;59.99;101016.50;20774099;28;20236;-80
2023/09/04 23:33:45;;;;;;;2.60;2.30;;;;;;;17.23;59.48;101012.34;20774822;28;20227;-79
2023/09/04 23:54:07;;;;;;;5.93;3.03;;;;;;;16.99;61.12;101008.31;20774223;28;20200;-79
